createdAt,value
2023-02-01T00:02:11.630Z,26.30
2023-02-01T00:04:45.526Z,26.50
2023-02-01T00:07:16.535Z,26.60
2023-02-01T00:09:46.780Z,26.50
2023-02-01T00:12:17.300Z,26.70
2023-02-01T00:14:47.518Z,26.80
2023-02-01T00:17:18.025Z,27.00
2023-02-01T00:19:48.731Z,27.10
2023-02-01T00:22:19.286Z,27.10
2023-02-01T00:24:50.072Z,27.20
2023-02-01T00:27:23.402Z,27.20
2023-02-01T00:29:54.112Z,27.20
2023-02-01T00:32:25.756Z,27.30
2023-02-01T00:34:56.465Z,27.30
2023-02-01T00:37:27.337Z,27.40
2023-02-01T00:39:58.842Z,27.40
2023-02-01T00:42:29.673Z,27.40
2023-02-01T00:45:00.418Z,27.10
2023-02-01T00:47:33.762Z,26.90
2023-02-01T00:50:04.466Z,27.00
2023-02-01T00:52:35.453Z,27.00
2023-02-01T00:55:09.002Z,27.20
2023-02-01T00:57:39.698Z,27.40
2023-02-01T01:00:11.033Z,27.70
2023-02-01T01:02:41.739Z,27.90
2023-02-01T01:05:12.291Z,28.00
2023-02-01T01:07:44.547Z,28.10
2023-02-01T01:10:15.136Z,28.20
2023-02-01T01:12:45.990Z,28.30
2023-02-01T01:15:16.331Z,28.40
2023-02-01T01:17:46.971Z,28.40
2023-02-01T01:20:17.262Z,28.50
2023-02-01T01:22:47.880Z,28.60
2023-02-01T01:25:19.088Z,28.60
2023-02-01T01:27:49.715Z,28.60
2023-02-01T01:30:20.729Z,28.70
2023-02-01T01:32:51.268Z,28.80
2023-02-01T01:35:21.547Z,28.90
2023-02-01T01:37:51.828Z,28.90
2023-02-01T01:40:22.300Z,29.10
2023-02-01T01:42:56.436Z,29.10
2023-02-01T01:45:42.658Z,29.20
2023-02-01T01:48:18.833Z,29.30
2023-02-01T01:51:04.051Z,29.30
2023-02-01T01:53:42.141Z,29.50
2023-02-01T01:56:13.447Z,29.60
2023-02-01T01:58:46.010Z,29.50
2023-02-01T02:01:16.791Z,29.60
2023-02-01T02:03:50.789Z,29.50
2023-02-01T02:06:36.383Z,29.60
2023-02-01T02:09:08.401Z,29.50
2023-02-01T02:11:39.116Z,29.60
2023-02-01T02:14:13.090Z,29.60
2023-02-01T02:17:19.094Z,29.50
2023-02-01T02:20:05.022Z,29.60
2023-02-01T02:22:48.016Z,29.70
2023-02-01T02:25:50.340Z,29.70
2023-02-01T02:29:14.950Z,29.70
2023-02-01T02:32:07.516Z,29.70
2023-02-01T02:35:01.284Z,29.70
2023-02-01T02:37:40.998Z,29.80
2023-02-01T02:40:30.143Z,29.70
2023-02-01T02:44:13.475Z,29.60
2023-02-01T02:47:09.001Z,29.60
2023-02-01T02:50:27.902Z,29.60
2023-02-01T02:53:34.070Z,29.70
2023-02-01T02:56:25.572Z,29.80
2023-02-01T02:59:15.578Z,29.80
2023-02-01T03:02:06.265Z,29.90
2023-02-01T03:04:36.575Z,29.90
2023-02-01T03:07:35.661Z,29.90
2023-02-01T03:10:13.887Z,29.80
2023-02-01T03:12:59.111Z,29.70
2023-02-01T03:15:35.608Z,29.60
2023-02-01T03:18:10.495Z,29.60
2023-02-01T03:20:44.035Z,29.60
2023-02-01T03:23:17.931Z,29.70
2023-02-01T03:25:54.856Z,29.60
2023-02-01T03:28:28.880Z,29.50
2023-02-01T03:30:59.662Z,29.50
2023-02-01T03:33:33.188Z,29.40
2023-02-01T03:36:17.836Z,29.50
2023-02-01T03:39:12.276Z,29.70
2023-02-01T03:41:52.536Z,29.60
2023-02-01T03:44:44.261Z,29.60
2023-02-01T03:47:24.223Z,29.70
2023-02-01T03:50:11.467Z,29.60
2023-02-01T03:52:49.097Z,29.50
2023-02-01T03:55:23.543Z,29.50
2023-02-01T03:58:09.424Z,29.60
2023-02-01T04:00:40.441Z,29.50
2023-02-01T04:03:15.495Z,29.50
2023-02-01T04:05:46.171Z,29.60
2023-02-01T04:08:20.895Z,29.60
2023-02-01T04:10:51.814Z,29.70
2023-02-01T04:13:22.387Z,29.70
2023-02-01T04:15:52.686Z,29.60
2023-02-01T04:18:22.911Z,29.50
2023-02-01T04:20:53.553Z,29.40
2023-02-01T04:23:24.184Z,29.30
2023-02-01T04:25:54.512Z,29.20
2023-02-01T04:28:24.724Z,29.10
2023-02-01T04:30:55.036Z,29.10
2023-02-01T04:33:25.288Z,29.10
2023-02-01T04:35:55.576Z,29.20
2023-02-01T04:38:32.091Z,29.20
2023-02-01T04:41:03.047Z,29.20
2023-02-01T04:43:33.426Z,29.00
2023-02-01T04:46:03.700Z,29.00
2023-02-01T04:48:34.067Z,28.90
2023-02-01T04:51:04.296Z,28.90
2023-02-01T04:53:34.754Z,28.90
2023-02-01T04:56:05.395Z,28.80
2023-02-01T04:58:35.849Z,28.80
2023-02-01T05:01:11.156Z,28.80
2023-02-01T05:03:41.410Z,28.80
2023-02-01T05:06:11.726Z,28.90
2023-02-01T05:08:42.019Z,28.80
2023-02-01T05:11:34.510Z,28.80
2023-02-01T05:14:04.936Z,28.70
2023-02-01T05:16:35.795Z,28.60
2023-02-01T05:19:06.105Z,28.60
2023-02-01T05:21:36.489Z,28.60
2023-02-01T05:24:13.073Z,28.60
2023-02-01T05:26:46.474Z,28.60
2023-02-01T05:29:17.889Z,28.50
2023-02-01T05:31:51.787Z,28.50
2023-02-01T05:34:22.231Z,28.50
2023-02-01T05:36:52.772Z,28.40
2023-02-01T05:39:23.234Z,28.40
2023-02-01T05:41:53.859Z,28.40
2023-02-01T05:44:24.221Z,28.40
2023-02-01T05:46:55.155Z,28.40
2023-02-01T05:49:25.653Z,28.30
2023-02-01T05:51:56.124Z,28.30
2023-02-01T05:54:26.556Z,28.10
2023-02-01T05:56:57.940Z,28.10
2023-02-01T05:59:28.211Z,27.90
2023-02-01T06:01:58.711Z,27.80
2023-02-01T06:04:29.247Z,27.80
2023-02-01T06:06:59.731Z,27.70
2023-02-01T06:09:30.958Z,27.70
2023-02-01T06:12:02.314Z,27.70
2023-02-01T06:14:32.978Z,27.70
2023-02-01T06:17:03.598Z,27.70
2023-02-01T06:19:33.795Z,27.60
2023-02-01T06:22:04.179Z,27.50
2023-02-01T06:24:34.392Z,27.40
2023-02-01T06:27:04.703Z,27.40
2023-02-01T06:29:35.104Z,27.40
2023-02-01T06:32:06.138Z,27.40
2023-02-01T06:34:36.407Z,27.30
2023-02-01T06:37:07.640Z,27.30
2023-02-01T06:39:38.093Z,27.20
2023-02-01T06:42:08.582Z,27.20
2023-02-01T06:44:51.635Z,27.10
2023-02-01T06:47:22.230Z,27.10
2023-02-01T06:49:52.506Z,27.00
2023-02-01T06:52:23.646Z,27.00
2023-02-01T06:54:53.901Z,26.90
2023-02-01T06:57:24.244Z,26.80
2023-02-01T06:59:54.517Z,26.80
2023-02-01T07:02:24.900Z,26.70
2023-02-01T07:04:55.683Z,26.70
2023-02-01T07:07:26.707Z,26.70
2023-02-01T07:09:56.976Z,26.60
2023-02-01T07:12:27.415Z,26.60
2023-02-01T07:14:57.721Z,26.60
2023-02-01T07:17:28.746Z,26.50
2023-02-01T07:20:01.341Z,26.50
2023-02-01T07:22:32.138Z,26.50
2023-02-01T07:25:02.819Z,26.50
2023-02-01T07:27:34.137Z,26.50
2023-02-01T07:30:04.982Z,26.40
2023-02-01T07:32:35.497Z,26.40
2023-02-01T07:35:05.884Z,26.30
2023-02-01T07:37:36.204Z,26.40
2023-02-01T07:40:06.731Z,26.30
2023-02-01T07:42:38.125Z,26.30
2023-02-01T07:45:21.044Z,26.30
2023-02-01T07:47:52.505Z,26.30
2023-02-01T07:50:23.411Z,26.30
2023-02-01T07:52:54.066Z,26.20
2023-02-01T07:55:24.680Z,26.20
2023-02-01T07:57:55.137Z,26.20
2023-02-01T08:00:43.053Z,26.10
2023-02-01T08:03:13.552Z,26.10
2023-02-01T08:05:43.810Z,26.00
2023-02-01T08:08:14.489Z,26.00
2023-02-01T08:10:44.743Z,26.00
2023-02-01T08:13:15.077Z,25.90
2023-02-01T08:15:45.368Z,25.90
2023-02-01T08:18:18.931Z,25.80
2023-02-01T08:20:50.343Z,25.70
2023-02-01T08:23:20.939Z,25.60
2023-02-01T08:25:51.630Z,25.50
2023-02-01T08:28:22.124Z,25.50
2023-02-01T08:30:52.391Z,25.40
2023-02-01T08:33:22.625Z,25.30
2023-02-01T08:35:52.950Z,25.20
2023-02-01T08:38:32.338Z,25.10
2023-02-01T08:41:12.067Z,25.00
2023-02-01T08:43:43.200Z,25.00
2023-02-01T08:46:14.403Z,24.90
2023-02-01T08:48:44.931Z,24.80
2023-02-01T08:51:18.239Z,24.70
2023-02-01T08:53:48.887Z,24.60
2023-02-01T08:56:21.099Z,24.50
2023-02-01T08:58:51.549Z,24.50
2023-02-01T09:01:21.943Z,24.40
2023-02-01T09:03:52.525Z,24.30
2023-02-01T09:06:22.805Z,24.20
2023-02-01T09:08:53.116Z,24.10
2023-02-01T09:11:23.371Z,24.10
2023-02-01T09:13:53.743Z,24.00
2023-02-01T09:16:24.017Z,24.00
2023-02-01T09:19:23.853Z,23.90
2023-02-01T09:21:44.600Z,23.90
2023-02-01T09:24:15.737Z,23.80
2023-02-01T09:26:46.075Z,23.60
2023-02-01T09:29:16.299Z,23.50
2023-02-01T09:31:57.389Z,23.40
2023-02-01T09:34:33.395Z,23.30
2023-02-01T09:37:04.691Z,23.20
2023-02-01T09:39:35.700Z,23.00
2023-02-01T09:42:31.164Z,22.90
2023-02-01T09:45:20.457Z,22.70
2023-02-01T09:48:03.643Z,22.60
2023-02-01T09:50:45.388Z,22.50
2023-02-01T09:53:35.640Z,22.30
2023-02-01T09:56:27.939Z,22.30
2023-02-01T09:59:34.464Z,22.10
2023-02-01T10:02:08.585Z,22.00
2023-02-01T10:04:39.166Z,21.80
2023-02-01T10:07:44.329Z,21.70
2023-02-01T10:10:42.856Z,21.60
2023-02-01T10:13:47.955Z,21.50
2023-02-01T10:16:40.646Z,21.50
2023-02-01T10:19:39.163Z,21.30
2023-02-01T10:22:14.370Z,21.30
2023-02-01T10:24:46.703Z,21.10
2023-02-01T10:27:18.939Z,21.10
2023-02-01T10:30:02.756Z,21.00
2023-02-01T10:32:37.863Z,20.90
2023-02-01T10:35:20.495Z,20.90
2023-02-01T10:37:51.308Z,20.90
2023-02-01T10:40:29.291Z,20.80
2023-02-01T10:43:07.558Z,20.80
2023-02-01T10:45:38.652Z,20.70
2023-02-01T10:48:11.393Z,20.70
2023-02-01T10:51:00.093Z,20.60
2023-02-01T10:53:38.484Z,20.50
2023-02-01T10:56:13.866Z,20.40
2023-02-01T10:58:51.228Z,20.40
2023-02-01T11:01:33.326Z,20.30
2023-02-01T11:04:06.293Z,20.30
2023-02-01T11:06:45.047Z,20.30
2023-02-01T11:09:27.766Z,20.20
2023-02-01T11:12:02.823Z,20.20
2023-02-01T11:14:43.278Z,20.20
2023-02-01T11:17:22.109Z,20.30
2023-02-01T11:20:02.185Z,20.30
2023-02-01T11:22:33.389Z,20.30
2023-02-01T11:25:10.786Z,20.30
2023-02-01T11:27:53.119Z,20.20
2023-02-01T11:30:42.979Z,20.20
2023-02-01T11:33:18.767Z,20.10
2023-02-01T11:35:50.872Z,20.00
2023-02-01T11:38:41.270Z,20.00
2023-02-01T11:41:28.937Z,19.90
2023-02-01T11:44:05.361Z,19.90
2023-02-01T11:46:38.254Z,19.80
2023-02-01T11:49:28.399Z,19.80
2023-02-01T11:52:09.283Z,19.70
2023-02-01T11:55:23.853Z,19.60
2023-02-01T11:58:02.875Z,19.60
2023-02-01T12:00:56.185Z,19.60
2023-02-01T12:03:53.816Z,19.50
2023-02-01T12:06:59.671Z,19.50
2023-02-01T12:10:03.789Z,19.50
2023-02-01T12:12:57.241Z,19.40
2023-02-01T12:15:31.954Z,19.40
2023-02-01T12:18:22.827Z,19.30
2023-02-01T12:21:05.357Z,19.20
2023-02-01T12:24:12.432Z,19.10
2023-02-01T12:26:57.817Z,19.10
2023-02-01T12:29:36.118Z,19.00
2023-02-01T12:32:12.571Z,18.90
2023-02-01T12:35:17.824Z,18.80
2023-02-01T12:38:33.780Z,18.80
2023-02-01T12:41:16.034Z,18.80
2023-02-01T12:43:55.969Z,18.70
2023-02-01T12:46:38.377Z,18.70
2023-02-01T12:49:29.616Z,18.70
2023-02-01T12:52:08.089Z,18.70
2023-02-01T12:55:19.734Z,18.60
2023-02-01T12:57:57.148Z,18.60
2023-02-01T13:00:49.493Z,18.50
2023-02-01T13:03:22.707Z,18.50
2023-02-01T13:06:11.120Z,18.50
2023-02-01T13:08:41.573Z,18.40
2023-02-01T13:11:40.525Z,18.40
2023-02-01T13:14:49.260Z,18.40
2023-02-01T13:17:29.605Z,18.40
2023-02-01T13:20:21.352Z,18.40
2023-02-01T13:23:03.815Z,18.40
2023-02-01T13:25:54.128Z,18.40
2023-02-01T13:28:45.920Z,18.40
2023-02-01T13:31:34.707Z,18.30
2023-02-01T13:34:41.769Z,18.30
2023-02-01T13:37:24.151Z,18.20
2023-02-01T13:40:26.452Z,18.20
2023-02-01T13:43:09.150Z,18.10
2023-02-01T13:45:47.836Z,18.10
2023-02-01T13:48:49.457Z,18.10
2023-02-01T13:51:31.910Z,18.00
2023-02-01T13:54:02.222Z,18.00
2023-02-01T13:56:42.366Z,17.90
2023-02-01T13:59:44.579Z,17.90
2023-02-01T14:02:42.263Z,17.80
2023-02-01T14:05:16.287Z,17.80
2023-02-01T14:08:21.232Z,17.80
2023-02-01T14:11:03.941Z,17.70
2023-02-01T14:13:40.947Z,17.70
2023-02-01T14:16:15.746Z,17.70
2023-02-01T14:18:48.255Z,17.70
2023-02-01T14:21:49.243Z,17.70
2023-02-01T14:24:32.975Z,17.60
2023-02-01T14:27:23.596Z,17.60
2023-02-01T14:30:17.760Z,17.60
2023-02-01T14:32:49.422Z,17.60
2023-02-01T14:35:24.276Z,17.60
2023-02-01T14:38:01.795Z,17.50
2023-02-01T14:40:33.321Z,17.50
2023-02-01T14:43:03.577Z,17.50
2023-02-01T14:45:37.038Z,17.50
2023-02-01T14:48:10.321Z,17.60
2023-02-01T14:50:52.190Z,17.50
2023-02-01T14:53:36.000Z,17.50
2023-02-01T14:56:13.210Z,17.50
2023-02-01T14:59:19.599Z,17.50
2023-02-01T15:02:03.789Z,17.50
2023-02-01T15:04:45.385Z,17.50
2023-02-01T15:07:18.109Z,17.40
2023-02-01T15:09:50.825Z,17.40
2023-02-01T15:12:29.517Z,17.40
2023-02-01T15:15:21.141Z,17.40
2023-02-01T15:18:05.670Z,17.30
2023-02-01T15:20:36.745Z,17.30
2023-02-01T15:23:19.384Z,17.30
2023-02-01T15:25:52.225Z,17.30
2023-02-01T15:28:24.250Z,17.30
2023-02-01T15:31:03.255Z,17.20
2023-02-01T15:33:35.131Z,17.20
2023-02-01T15:36:15.412Z,17.10
2023-02-01T15:38:49.206Z,17.10
2023-02-01T15:41:32.330Z,17.10
2023-02-01T15:44:04.056Z,17.10
2023-02-01T15:46:39.405Z,17.10
2023-02-01T15:49:34.442Z,17.10
2023-02-01T15:52:06.127Z,17.10
2023-02-01T15:54:47.030Z,17.00
2023-02-01T15:57:33.943Z,16.90
2023-02-01T16:00:10.713Z,16.90
2023-02-01T16:02:46.842Z,16.90
2023-02-01T16:05:40.946Z,16.90
2023-02-01T16:08:14.733Z,16.80
2023-02-01T16:10:48.299Z,16.80
2023-02-01T16:13:20.692Z,16.70
2023-02-01T16:15:52.100Z,16.70
2023-02-01T16:18:22.803Z,16.70
2023-02-01T16:20:53.053Z,16.60
2023-02-01T16:23:23.357Z,16.60
2023-02-01T16:25:53.593Z,16.60
2023-02-01T16:28:23.996Z,16.60
2023-02-01T16:30:54.299Z,16.50
2023-02-01T16:33:26.099Z,16.50
2023-02-01T16:36:00.020Z,16.50
2023-02-01T16:38:34.608Z,16.50
2023-02-01T16:41:05.554Z,16.40
2023-02-01T16:43:36.013Z,16.40
2023-02-01T16:46:06.405Z,16.40
2023-02-01T16:48:41.260Z,16.40
2023-02-01T16:51:19.500Z,16.40
2023-02-01T16:53:54.659Z,16.30
2023-02-01T16:56:29.220Z,16.30
2023-02-01T16:59:00.115Z,16.30
2023-02-01T17:01:31.704Z,16.30
2023-02-01T17:04:02.044Z,16.20
2023-02-01T17:06:35.064Z,16.20
2023-02-01T17:09:06.479Z,16.20
2023-02-01T17:11:37.304Z,16.10
2023-02-01T17:14:22.184Z,16.10
2023-02-01T17:16:53.590Z,16.10
2023-02-01T17:19:26.617Z,16.10
2023-02-01T17:22:01.164Z,16.00
2023-02-01T17:24:47.724Z,16.00
2023-02-01T17:27:18.483Z,16.00
2023-02-01T17:29:50.269Z,16.10
2023-02-01T17:32:26.629Z,16.00
2023-02-01T17:34:57.240Z,16.00
2023-02-01T17:37:38.283Z,15.90
2023-02-01T17:40:09.014Z,15.80
2023-02-01T17:42:39.333Z,15.80
2023-02-01T17:45:38.734Z,15.80
2023-02-01T17:48:10.554Z,15.80
2023-02-01T17:50:41.599Z,15.70
2023-02-01T17:53:15.231Z,15.70
2023-02-01T17:55:47.791Z,15.60
2023-02-01T17:58:19.502Z,15.60
2023-02-01T18:00:51.351Z,15.60
2023-02-01T18:03:34.603Z,15.60
2023-02-01T18:06:06.317Z,15.60
2023-02-01T18:08:36.588Z,15.60
2023-02-01T18:11:08.839Z,15.50
2023-02-01T18:13:39.257Z,15.50
2023-02-01T18:16:15.867Z,15.50
2023-02-01T18:18:46.183Z,15.50
2023-02-01T18:21:18.281Z,15.60
2023-02-01T18:23:49.055Z,15.60
2023-02-01T18:26:21.681Z,15.60
2023-02-01T18:28:52.008Z,15.60
2023-02-01T18:31:31.609Z,15.60
2023-02-01T18:34:02.837Z,15.60
2023-02-01T18:36:33.243Z,15.60
2023-02-01T18:39:03.699Z,15.60
2023-02-01T18:41:34.204Z,15.60
2023-02-01T18:44:06.096Z,15.50
2023-02-01T18:46:36.597Z,15.50
2023-02-01T18:49:07.237Z,15.50
2023-02-01T18:51:38.344Z,15.50
2023-02-01T18:54:08.819Z,15.40
2023-02-01T18:56:40.193Z,15.40
2023-02-01T18:59:10.895Z,15.30
2023-02-01T19:01:42.226Z,15.30
2023-02-01T19:04:19.832Z,15.30
2023-02-01T19:06:55.951Z,15.20
2023-02-01T19:09:26.184Z,15.20
2023-02-01T19:11:56.456Z,15.10
2023-02-01T19:14:26.725Z,15.10
2023-02-01T19:16:59.777Z,15.10
2023-02-01T19:19:30.290Z,15.10
2023-02-01T19:22:00.557Z,15.00
2023-02-01T19:24:32.153Z,15.10
2023-02-01T19:27:03.267Z,15.10
2023-02-01T19:29:33.744Z,15.10
2023-02-01T19:32:04.716Z,15.10
2023-02-01T19:34:36.048Z,15.10
2023-02-01T19:37:06.895Z,15.10
2023-02-01T19:39:40.457Z,15.10
2023-02-01T19:42:11.786Z,15.00
2023-02-01T19:44:42.096Z,15.10
2023-02-01T19:47:12.513Z,15.10
2023-02-01T19:49:43.387Z,15.10
2023-02-01T19:52:14.480Z,15.10
2023-02-01T19:54:45.559Z,15.20
2023-02-01T19:57:16.309Z,15.20
2023-02-01T19:59:46.561Z,15.20
2023-02-01T20:02:17.288Z,15.30
2023-02-01T20:04:47.544Z,15.40
2023-02-01T20:07:18.354Z,15.40
2023-02-01T20:09:48.676Z,15.40
2023-02-01T20:12:21.749Z,15.50
2023-02-01T20:14:52.555Z,15.50
2023-02-01T20:17:22.798Z,15.60
2023-02-01T20:19:53.023Z,15.70
2023-02-01T20:22:23.674Z,15.80
2023-02-01T20:24:53.913Z,15.80
2023-02-01T20:27:25.762Z,15.90
2023-02-01T20:29:55.955Z,15.90
2023-02-01T20:32:26.349Z,16.00
2023-02-01T20:34:56.579Z,16.10
2023-02-01T20:37:26.904Z,16.10
2023-02-01T20:39:57.330Z,16.20
2023-02-01T20:42:27.980Z,16.30
2023-02-01T20:44:58.826Z,16.30
2023-02-01T20:47:29.549Z,16.40
2023-02-01T20:50:00.259Z,16.50
2023-02-01T20:52:31.224Z,16.60
2023-02-01T20:55:01.445Z,16.60
2023-02-01T20:57:31.675Z,16.70
2023-02-01T21:00:02.234Z,16.80
2023-02-01T21:02:32.473Z,16.80
2023-02-01T21:05:03.122Z,16.80
2023-02-01T21:07:33.305Z,16.90
2023-02-01T21:10:05.201Z,17.00
2023-02-01T21:12:36.118Z,17.10
2023-02-01T21:15:07.797Z,17.20
2023-02-01T21:17:40.918Z,17.20
2023-02-01T21:20:12.095Z,17.10
2023-02-01T21:22:42.418Z,17.10
2023-02-01T21:25:12.988Z,17.10
2023-02-01T21:27:43.799Z,17.10
2023-02-01T21:30:15.333Z,17.10
2023-02-01T21:32:45.724Z,17.20
2023-02-01T21:35:16.080Z,17.30
2023-02-01T21:37:47.212Z,17.30
2023-02-01T21:40:17.531Z,17.50
2023-02-01T21:42:48.187Z,17.80
2023-02-01T21:45:19.658Z,17.90
2023-02-01T21:47:50.223Z,18.20
2023-02-01T21:50:23.146Z,18.50
2023-02-01T21:52:53.468Z,18.90
2023-02-01T21:55:24.325Z,19.20
2023-02-01T21:57:55.173Z,19.60
2023-02-01T22:00:25.703Z,20.10
2023-02-01T22:02:56.190Z,20.50
2023-02-01T22:05:26.667Z,20.80
2023-02-01T22:07:57.850Z,21.30
2023-02-01T22:10:28.148Z,21.70
2023-02-01T22:12:58.574Z,22.10
2023-02-01T22:15:30.890Z,22.50
2023-02-01T22:18:01.240Z,22.70
2023-02-01T22:20:31.785Z,23.00
2023-02-01T22:23:02.123Z,23.30
2023-02-01T22:25:33.542Z,23.60
2023-02-01T22:28:32.978Z,23.90
2023-02-01T22:30:53.967Z,24.20
2023-02-01T22:33:24.620Z,24.50
2023-02-01T22:35:54.817Z,24.60
2023-02-01T22:38:30.973Z,24.90
2023-02-01T22:41:01.185Z,25.10
2023-02-01T22:43:33.186Z,25.20
2023-02-01T22:46:09.347Z,25.30
2023-02-01T22:48:41.609Z,25.30
2023-02-01T22:51:35.104Z,25.40
2023-02-01T22:54:05.602Z,25.50
2023-02-01T22:56:39.627Z,25.60
2023-02-01T22:59:12.939Z,25.50
2023-02-01T23:01:44.114Z,25.50
2023-02-01T23:04:17.100Z,25.40
2023-02-01T23:06:48.148Z,25.30
2023-02-01T23:09:28.628Z,25.30
2023-02-01T23:11:58.933Z,25.20
2023-02-01T23:14:29.401Z,25.20
2023-02-01T23:16:59.581Z,25.10
2023-02-01T23:19:29.836Z,25.10
2023-02-01T23:22:00.131Z,25.10
2023-02-01T23:24:30.423Z,25.00
2023-02-01T23:27:00.708Z,25.00
2023-02-01T23:29:31.585Z,25.10
2023-02-01T23:32:01.861Z,25.10
2023-02-01T23:34:32.178Z,25.20
2023-02-01T23:37:02.693Z,25.20
2023-02-01T23:39:34.795Z,25.20
2023-02-01T23:42:06.458Z,25.20
2023-02-01T23:44:36.720Z,25.30
2023-02-01T23:47:07.111Z,25.40
2023-02-01T23:49:37.342Z,25.50
2023-02-01T23:52:08.851Z,25.60
2023-02-01T23:54:39.098Z,25.60
2023-02-01T23:57:09.439Z,25.50
2023-02-01T23:59:39.925Z,25.60
